createdAt,value
2018-07-28T00:05:22.551Z,6.87
2018-07-28T00:15:25.645Z,7.20
2018-07-28T00:25:32.993Z,6.65
2018-07-28T00:35:36.048Z,6.65
2018-07-28T00:45:39.186Z,6.50
2018-07-28T00:55:42.235Z,7.33
2018-07-28T01:05:45.354Z,6.72
2018-07-28T01:15:48.326Z,7.97
2018-07-28T01:25:51.382Z,7.00
2018-07-28T01:35:54.406Z,7.70
2018-07-28T01:45:57.602Z,8.13
2018-07-28T01:56:00.619Z,7.55
2018-07-28T02:06:05.807Z,7.65
2018-07-28T02:16:09.011Z,7.58
2018-07-28T02:26:12.066Z,8.10
2018-07-28T02:36:15.141Z,8.13
2018-07-28T02:46:18.198Z,8.95
2018-07-28T02:56:21.259Z,8.10
2018-07-28T03:06:24.362Z,8.43
2018-07-28T03:16:28.451Z,8.30
2018-07-28T03:26:31.506Z,9.38
2018-07-28T03:36:34.551Z,8.95
2018-07-28T03:46:37.591Z,9.23
2018-07-28T03:56:40.702Z,9.10
2018-07-28T04:06:50.194Z,9.93
2018-07-28T04:16:53.332Z,9.85
2018-07-28T04:26:56.413Z,9.90
2018-07-28T04:36:59.456Z,10.10
2018-07-28T04:47:02.679Z,10.72
2018-07-28T04:57:05.839Z,10.70
2018-07-28T05:07:09.665Z,10.75
2018-07-28T05:17:12.706Z,10.60
2018-07-28T05:27:15.769Z,10.58
2018-07-28T05:37:18.850Z,11.25
2018-07-28T05:47:22.005Z,11.18
2018-07-28T05:57:25.078Z,11.57
2018-07-28T06:07:29.351Z,10.30
2018-07-28T06:17:32.459Z,10.93
2018-07-28T06:27:35.518Z,10.38
2018-07-28T06:37:38.551Z,9.70
2018-07-28T06:47:41.621Z,10.15
2018-07-28T06:57:44.654Z,8.95
2018-07-28T07:07:47.821Z,8.63
2018-07-28T07:17:50.860Z,9.38
2018-07-28T07:27:55.044Z,8.80
2018-07-28T07:37:58.157Z,8.95
2018-07-28T07:48:01.339Z,8.00
2018-07-28T07:58:04.619Z,7.75
2018-07-28T08:08:07.707Z,7.08
2018-07-28T08:18:10.825Z,6.55
2018-07-28T08:28:13.981Z,5.97
2018-07-28T08:38:17.019Z,6.22
2018-07-28T08:48:20.189Z,5.87
2018-07-28T08:58:23.254Z,5.62
2018-07-28T09:08:26.302Z,5.17
2018-07-28T09:18:29.329Z,5.12
2018-07-28T09:28:32.405Z,5.28
2018-07-28T09:38:35.462Z,5.47
2018-07-28T09:48:40.580Z,5.80
2018-07-28T09:58:43.633Z,5.20
2018-07-28T10:08:47.094Z,5.05
2018-07-28T10:18:50.282Z,5.30
2018-07-28T10:28:53.407Z,5.53
2018-07-28T10:38:56.474Z,5.45
2018-07-28T10:48:59.699Z,5.00
2018-07-28T10:59:02.747Z,5.08
2018-07-28T11:09:07.565Z,4.78
2018-07-28T11:19:10.533Z,5.10
2018-07-28T11:29:13.585Z,5.00
2018-07-28T11:39:28.183Z,4.83
2018-07-28T11:49:31.213Z,4.00
2018-07-28T11:59:34.266Z,4.00
2018-07-28T12:09:37.311Z,4.37
2018-07-28T12:19:40.365Z,4.17
2018-07-28T12:29:43.427Z,3.92
2018-07-28T12:39:48.502Z,3.62
2018-07-28T12:49:51.582Z,3.60
2018-07-28T12:59:54.742Z,3.60
2018-07-28T13:09:57.799Z,3.55
2018-07-28T13:20:03.030Z,3.80
2018-07-28T13:30:07.377Z,4.33
2018-07-28T13:40:10.453Z,4.10
2018-07-28T13:50:13.627Z,4.03
2018-07-28T14:00:17.762Z,4.58
2018-07-28T14:10:20.795Z,4.10
2018-07-28T14:20:23.942Z,4.05
2018-07-28T14:30:28.213Z,4.17
2018-07-28T14:40:31.262Z,4.35
2018-07-28T14:50:34.314Z,3.87
2018-07-28T15:00:37.353Z,4.22
2018-07-28T15:10:40.396Z,4.05
2018-07-28T15:20:43.479Z,4.30
2018-07-28T15:30:46.501Z,4.40
2018-07-28T15:40:49.541Z,4.50
2018-07-28T15:50:52.582Z,4.15
2018-07-28T16:00:55.600Z,4.37
2018-07-28T16:10:58.613Z,4.85
2018-07-28T16:21:01.659Z,4.67
2018-07-28T16:31:04.702Z,4.15
2018-07-28T16:41:07.867Z,5.00
2018-07-28T16:51:10.939Z,4.55
2018-07-28T17:01:13.909Z,4.53
2018-07-28T17:11:16.975Z,4.78
2018-07-28T17:21:20.043Z,5.15
2018-07-28T17:31:23.264Z,5.00
2018-07-28T17:41:26.378Z,4.70
2018-07-28T17:51:31.702Z,4.87
2018-07-28T18:01:34.802Z,3.47
2018-07-28T18:11:37.842Z,3.30
2018-07-28T18:21:44.511Z,4.05
2018-07-28T18:31:47.574Z,3.35
2018-07-28T18:41:52.775Z,3.77
2018-07-28T18:51:58.865Z,3.05
2018-07-28T19:02:02.025Z,2.77
2018-07-28T19:12:05.530Z,3.50
2018-07-28T19:22:14.246Z,6.97
2018-07-28T19:32:17.302Z,3.75
2018-07-28T19:42:25.815Z,4.35
2018-07-28T19:52:28.945Z,3.92
2018-07-28T20:02:32.030Z,4.50
2018-07-28T20:12:35.328Z,4.33
2018-07-28T20:22:38.174Z,4.37
2018-07-28T20:32:45.807Z,4.30
2018-07-28T20:42:49.145Z,4.83
2018-07-28T20:52:52.562Z,4.75
2018-07-28T21:02:55.583Z,5.72
2018-07-28T21:12:58.982Z,5.10
2018-07-28T21:23:02.014Z,5.90
2018-07-28T21:33:05.096Z,5.37
2018-07-28T21:43:07.952Z,5.75
2018-07-28T21:53:10.993Z,4.92
2018-07-28T22:03:13.998Z,5.20
2018-07-28T22:13:17.002Z,5.65
2018-07-28T22:23:20.094Z,5.17
2018-07-28T22:33:23.102Z,5.50
2018-07-28T22:43:26.152Z,4.72
2018-07-28T22:53:29.166Z,5.55
2018-07-28T23:03:32.224Z,5.58
2018-07-28T23:13:35.289Z,5.70
2018-07-28T23:23:38.382Z,6.75
2018-07-28T23:33:42.549Z,6.37
2018-07-28T23:43:45.672Z,7.10
2018-07-28T23:53:48.713Z,8.00
